createdAt,value
2019-05-02T00:02:23.966Z,9.64
2019-05-02T00:05:00.960Z,9.64
2019-05-02T00:07:37.367Z,9.64
2019-05-02T00:10:15.266Z,9.60
2019-05-02T00:12:50.869Z,9.56
2019-05-02T00:15:26.014Z,9.56
2019-05-02T00:18:01.582Z,9.55
2019-05-02T00:20:37.804Z,9.49
2019-05-02T00:23:13.013Z,9.47
2019-05-02T00:25:52.576Z,9.42
2019-05-02T00:28:25.518Z,9.42
2019-05-02T00:31:00.610Z,9.39
2019-05-02T00:33:36.635Z,9.34
2019-05-02T00:36:12.253Z,9.38
2019-05-02T00:38:48.698Z,9.36
2019-05-02T00:41:23.802Z,9.39
2019-05-02T00:43:58.856Z,9.36
2019-05-02T00:46:34.959Z,9.32
2019-05-02T00:49:10.755Z,9.27
2019-05-02T00:51:45.926Z,9.23
2019-05-02T00:54:24.206Z,9.23
2019-05-02T00:56:58.729Z,9.21
2019-05-02T00:59:37.839Z,9.18
2019-05-02T01:02:12.622Z,9.10
2019-05-02T01:04:49.558Z,9.05
2019-05-02T01:07:25.422Z,9.04
2019-05-02T01:10:01.937Z,9.04
2019-05-02T01:12:39.876Z,9.06
2019-05-02T01:15:14.929Z,9.12
2019-05-02T01:17:50.089Z,9.20
2019-05-02T01:20:27.439Z,9.12
2019-05-02T01:23:02.901Z,9.28
2019-05-02T01:25:37.960Z,9.29
2019-05-02T01:32:13.753Z,9.36
2019-05-02T01:34:59.759Z,9.38
2019-05-02T01:37:36.704Z,9.36
2019-05-02T01:40:13.183Z,9.36
2019-05-02T01:42:51.080Z,9.36
2019-05-02T01:45:26.256Z,9.38
2019-05-02T01:48:04.937Z,9.45
2019-05-02T01:50:41.694Z,9.44
2019-05-02T01:53:18.047Z,9.45
2019-05-02T01:55:57.830Z,9.49
2019-05-02T01:58:31.737Z,9.50
2019-05-02T02:01:07.027Z,9.36
2019-05-02T02:03:47.977Z,9.29
2019-05-02T02:06:24.199Z,9.18
2019-05-02T02:09:08.273Z,9.22
2019-05-02T02:11:44.165Z,9.21
2019-05-02T02:14:19.290Z,9.15
2019-05-02T02:16:54.320Z,9.15
2019-05-02T02:19:34.774Z,9.18
2019-05-02T02:22:09.814Z,9.12
2019-05-02T02:24:46.531Z,9.14
2019-05-02T02:27:24.616Z,9.14
2019-05-02T02:29:59.228Z,9.10
2019-05-02T02:32:34.321Z,9.07
2019-05-02T02:35:12.733Z,9.06
2019-05-02T02:37:53.047Z,9.09
2019-05-02T02:40:33.003Z,9.10
2019-05-02T02:43:12.427Z,9.07
2019-05-02T02:45:51.823Z,9.10
2019-05-02T02:48:26.591Z,9.09
2019-05-02T02:51:01.634Z,9.09
2019-05-02T02:53:36.670Z,9.12
2019-05-02T02:56:12.140Z,9.10
2019-05-02T02:58:48.302Z,9.11
2019-05-02T03:01:28.999Z,9.14
2019-05-02T03:04:01.845Z,9.14
2019-05-02T03:06:43.983Z,9.21
2019-05-02T03:09:20.163Z,9.23
2019-05-02T03:12:11.159Z,9.21
2019-05-02T03:14:49.413Z,9.22
2019-05-02T03:17:26.429Z,9.18
2019-05-02T03:20:03.745Z,9.15
2019-05-02T03:22:41.939Z,9.07
2019-05-02T03:25:18.293Z,9.11
2019-05-02T03:27:52.228Z,9.10
2019-05-02T03:30:36.905Z,9.10
2019-05-02T03:33:10.981Z,9.17
2019-05-02T03:35:48.781Z,9.17
2019-05-02T03:38:31.393Z,9.22
2019-05-02T03:40:57.770Z,9.20
2019-05-02T03:43:34.099Z,9.16
2019-05-02T03:46:13.654Z,9.12
2019-05-02T03:48:46.411Z,9.10
2019-05-02T03:51:25.172Z,9.15
2019-05-02T03:54:07.052Z,9.16
2019-05-02T03:56:37.293Z,9.26
2019-05-02T03:59:12.498Z,9.24
2019-05-02T04:01:49.291Z,9.24
2019-05-02T04:04:24.514Z,9.18
2019-05-02T04:07:01.095Z,9.20
2019-05-02T04:09:40.057Z,9.22
2019-05-02T04:12:21.396Z,9.19
2019-05-02T04:14:55.329Z,9.25
2019-05-02T04:17:35.304Z,9.24
2019-05-02T04:20:09.246Z,9.23
2019-05-02T04:22:48.876Z,9.30
2019-05-02T04:25:27.927Z,9.36
2019-05-02T04:28:05.946Z,9.34
2019-05-02T04:30:39.365Z,9.33
2019-05-02T04:33:14.840Z,9.39
2019-05-02T04:35:50.196Z,9.43
2019-05-02T04:38:41.676Z,9.39
2019-05-02T04:41:03.066Z,9.44
2019-05-02T04:43:40.758Z,9.44
2019-05-02T04:46:25.824Z,9.42
2019-05-02T04:48:55.125Z,9.45
2019-05-02T04:51:33.485Z,9.45
2019-05-02T04:54:21.908Z,9.45
2019-05-02T04:56:55.016Z,9.45
2019-05-02T04:59:28.465Z,9.44
2019-05-02T05:02:08.705Z,9.45
2019-05-02T05:04:48.638Z,9.51
2019-05-02T05:07:23.172Z,9.51
2019-05-02T05:10:03.043Z,9.61
2019-05-02T05:12:38.088Z,9.63
2019-05-02T05:15:22.655Z,9.57
2019-05-02T05:17:50.072Z,9.68
2019-05-02T05:20:27.915Z,9.63
2019-05-02T05:23:04.405Z,9.66
2019-05-02T05:25:41.285Z,9.74
2019-05-02T05:28:19.836Z,9.64
2019-05-02T05:30:54.646Z,9.58
2019-05-02T05:33:30.799Z,9.66
2019-05-02T05:36:08.279Z,9.64
2019-05-02T05:38:43.014Z,9.66
2019-05-02T05:41:22.740Z,9.61
2019-05-02T05:43:57.310Z,9.61
2019-05-02T05:46:38.680Z,9.65
2019-05-02T05:49:18.411Z,9.65
2019-05-02T05:51:49.555Z,9.73
2019-05-02T05:54:24.511Z,9.75
2019-05-02T05:57:02.088Z,9.90
2019-05-02T05:59:38.039Z,9.91
2019-05-02T06:02:18.386Z,9.87
2019-05-02T06:04:59.063Z,9.97
2019-05-02T06:07:33.586Z,9.99
2019-05-02T06:10:10.568Z,10.07
2019-05-02T06:12:47.015Z,10.17
2019-05-02T06:15:22.086Z,10.22
2019-05-02T06:18:00.042Z,10.27
2019-05-02T06:20:34.587Z,10.30
2019-05-02T06:23:09.956Z,10.26
2019-05-02T06:25:45.304Z,10.26
2019-05-02T06:28:21.437Z,10.16
2019-05-02T06:31:02.118Z,10.21
2019-05-02T06:33:35.072Z,10.28
2019-05-02T06:36:10.552Z,10.25
2019-05-02T06:38:45.737Z,10.27
2019-05-02T06:41:22.299Z,10.33
2019-05-02T06:43:57.921Z,10.40
2019-05-02T06:46:32.970Z,10.47
2019-05-02T06:49:08.460Z,10.55
2019-05-02T06:51:43.900Z,10.62
2019-05-02T06:54:22.902Z,10.66
2019-05-02T06:56:56.491Z,10.71
2019-05-02T06:59:31.956Z,10.75
2019-05-02T07:02:08.679Z,10.76
2019-05-02T07:04:44.239Z,10.82
2019-05-02T07:07:19.869Z,10.83
2019-05-02T07:09:57.316Z,10.82
2019-05-02T07:12:32.573Z,10.82
2019-05-02T07:15:33.517Z,10.87
2019-05-02T07:18:10.557Z,10.97
2019-05-02T07:20:48.519Z,10.99
2019-05-02T07:23:23.636Z,11.06
2019-05-02T07:26:00.552Z,10.96
2019-05-02T07:28:40.221Z,10.97
2019-05-02T07:31:13.929Z,11.12
2019-05-02T07:33:49.432Z,11.11
2019-05-02T07:36:24.543Z,11.13
2019-05-02T07:39:07.767Z,11.09
2019-05-02T07:41:42.830Z,11.17
2019-05-02T07:44:19.166Z,11.23
2019-05-02T07:46:57.032Z,11.34
2019-05-02T07:49:32.424Z,11.31
2019-05-02T07:52:08.330Z,11.27
2019-05-02T07:54:43.733Z,11.23
2019-05-02T07:57:19.317Z,11.22
2019-05-02T07:59:55.163Z,11.16
2019-05-02T08:02:33.894Z,11.19
2019-05-02T08:05:09.478Z,11.04
2019-05-02T08:07:45.469Z,11.15
2019-05-02T08:10:22.224Z,11.08
2019-05-02T08:12:57.903Z,11.16
2019-05-02T08:15:33.961Z,11.23
2019-05-02T08:18:09.552Z,11.25
2019-05-02T08:20:46.622Z,11.34
2019-05-02T08:23:25.921Z,11.41
2019-05-02T08:25:59.537Z,11.37
2019-05-02T08:28:42.441Z,11.38
2019-05-02T08:31:18.854Z,11.40
2019-05-02T08:33:55.919Z,11.47
2019-05-02T08:36:32.268Z,11.47
2019-05-02T08:39:08.232Z,11.52
2019-05-02T08:41:43.759Z,11.65
2019-05-02T08:44:18.974Z,11.71
2019-05-02T08:46:54.351Z,11.74
2019-05-02T08:49:29.401Z,11.75
2019-05-02T08:52:04.816Z,11.75
2019-05-02T08:54:39.899Z,11.85
2019-05-02T08:57:15.063Z,11.94
2019-05-02T09:00:00.270Z,11.88
2019-05-02T09:02:41.203Z,11.96
2019-05-02T09:05:10.670Z,12.01
2019-05-02T09:07:45.731Z,11.95
2019-05-02T09:10:21.121Z,11.90
2019-05-02T09:12:56.352Z,12.02
2019-05-02T09:15:32.004Z,12.07
2019-05-02T09:18:12.401Z,12.13
2019-05-02T09:20:54.897Z,12.20
2019-05-02T09:23:27.475Z,12.24
2019-05-02T09:26:02.580Z,12.37
2019-05-02T09:28:37.901Z,12.45
2019-05-02T09:31:15.110Z,12.62
2019-05-02T09:33:52.070Z,12.69
2019-05-02T09:36:28.070Z,12.82
2019-05-02T09:39:05.327Z,12.82
2019-05-02T09:41:43.644Z,12.77
2019-05-02T09:44:20.187Z,12.79
2019-05-02T09:46:57.454Z,13.00
2019-05-02T09:49:32.553Z,13.05
2019-05-02T09:52:07.947Z,13.03
2019-05-02T09:54:46.076Z,13.09
2019-05-02T09:57:19.967Z,13.34
2019-05-02T09:59:55.860Z,13.25
2019-05-02T10:02:32.517Z,13.31
2019-05-02T10:05:08.091Z,13.42
2019-05-02T10:07:43.469Z,13.44
2019-05-02T10:10:18.631Z,13.46
2019-05-02T10:12:53.945Z,13.56
2019-05-02T10:15:29.096Z,13.33
2019-05-02T10:18:11.017Z,13.19
2019-05-02T10:20:42.909Z,13.04
2019-05-02T10:23:19.648Z,13.02
2019-05-02T10:25:55.099Z,13.05
2019-05-02T10:28:31.757Z,13.03
2019-05-02T10:31:07.379Z,12.99
2019-05-02T10:33:42.515Z,12.94
2019-05-02T10:36:19.647Z,12.94
2019-05-02T10:38:59.094Z,12.93
2019-05-02T10:41:39.175Z,13.04
2019-05-02T10:44:09.302Z,13.10
2019-05-02T10:46:53.077Z,13.09
2019-05-02T10:49:47.617Z,13.17
2019-05-02T10:52:29.590Z,13.10
2019-05-02T10:54:59.767Z,13.04
2019-05-02T10:57:35.203Z,13.11
2019-05-02T11:00:13.688Z,13.12
2019-05-02T11:02:53.922Z,13.06
2019-05-02T11:05:31.576Z,13.10
2019-05-02T11:08:07.335Z,13.24
2019-05-02T11:10:42.940Z,13.18
2019-05-02T11:13:23.583Z,13.22
2019-05-02T11:16:03.632Z,13.21
2019-05-02T11:18:54.573Z,13.20
2019-05-02T11:21:32.156Z,13.09
2019-05-02T11:24:07.346Z,13.13
2019-05-02T11:26:42.977Z,13.09
2019-05-02T11:29:19.593Z,13.08
2019-05-02T11:31:54.685Z,13.05
2019-05-02T11:34:29.867Z,13.10
2019-05-02T11:37:05.298Z,13.21
2019-05-02T11:39:46.333Z,13.42
2019-05-02T11:42:17.796Z,13.46
2019-05-02T11:44:55.167Z,13.40
2019-05-02T11:47:30.464Z,13.37
2019-05-02T11:50:06.301Z,13.42
2019-05-02T11:52:42.446Z,13.40
2019-05-02T11:55:18.914Z,13.40
2019-05-02T11:57:54.881Z,13.42
2019-05-02T12:00:32.205Z,13.52
2019-05-02T12:03:12.657Z,13.66
2019-05-02T12:05:47.818Z,13.72
2019-05-02T12:08:23.096Z,13.83
2019-05-02T12:11:01.249Z,13.84
2019-05-02T12:13:34.971Z,13.78
2019-05-02T12:16:12.524Z,13.79
2019-05-02T12:18:48.226Z,13.79
2019-05-02T12:21:23.923Z,13.91
2019-05-02T12:23:59.373Z,14.06
2019-05-02T12:26:34.823Z,14.03
2019-05-02T12:29:12.196Z,13.96
2019-05-02T12:31:52.708Z,13.94
2019-05-02T12:34:25.347Z,13.99
2019-05-02T12:37:01.767Z,13.98
2019-05-02T12:39:37.142Z,13.99
2019-05-02T12:42:13.035Z,14.02
2019-05-02T12:44:48.457Z,14.04
2019-05-02T12:47:23.674Z,13.99
2019-05-02T12:49:58.739Z,13.90
2019-05-02T12:52:34.327Z,13.81
2019-05-02T12:55:12.628Z,13.82
2019-05-02T12:57:48.472Z,13.84
2019-05-02T13:00:23.713Z,13.97
2019-05-02T13:03:06.652Z,14.07
2019-05-02T13:05:42.626Z,14.22
2019-05-02T13:08:18.927Z,14.51
2019-05-02T13:11:02.314Z,14.62
2019-05-02T13:13:37.053Z,14.71
2019-05-02T13:16:12.324Z,14.62
2019-05-02T13:18:51.832Z,14.40
2019-05-02T13:21:39.301Z,14.33
2019-05-02T13:24:17.268Z,14.40
2019-05-02T13:26:59.585Z,14.65
2019-05-02T13:29:32.112Z,14.82
2019-05-02T13:32:14.351Z,14.83
2019-05-02T13:34:54.137Z,14.70
2019-05-02T13:37:28.492Z,14.72
2019-05-02T13:40:06.487Z,14.56
2019-05-02T13:42:41.984Z,14.35
2019-05-02T13:45:23.428Z,14.31
2019-05-02T13:47:59.593Z,13.97
2019-05-02T13:50:35.406Z,14.06
2019-05-02T13:53:12.167Z,14.31
2019-05-02T13:55:55.362Z,14.41
2019-05-02T13:58:33.056Z,14.65
2019-05-02T14:01:07.625Z,14.85
2019-05-02T14:03:42.736Z,14.85
2019-05-02T14:06:21.950Z,15.07
2019-05-02T14:08:59.243Z,15.05
2019-05-02T14:11:43.509Z,15.17
2019-05-02T14:14:18.821Z,15.20
2019-05-02T14:16:53.952Z,15.21
2019-05-02T14:19:31.940Z,15.06
2019-05-02T14:22:07.196Z,15.05
2019-05-02T14:24:44.624Z,15.14
2019-05-02T14:27:20.048Z,15.19
2019-05-02T14:29:56.043Z,15.06
2019-05-02T14:32:32.924Z,14.82
2019-05-02T14:35:13.433Z,14.77
2019-05-02T14:37:53.021Z,14.72
2019-05-02T14:40:32.041Z,14.70
2019-05-02T14:43:07.353Z,14.69
2019-05-02T14:45:43.942Z,14.76
2019-05-02T14:48:24.097Z,14.87
2019-05-02T14:50:59.076Z,15.09
2019-05-02T14:53:34.570Z,15.36
2019-05-02T14:56:12.723Z,15.67
2019-05-02T14:58:48.497Z,15.97
2019-05-02T15:01:26.287Z,16.15
2019-05-02T15:04:04.057Z,15.86
2019-05-02T15:06:45.464Z,15.68
2019-05-02T15:09:22.518Z,15.55
2019-05-02T15:11:58.579Z,15.45
2019-05-02T15:14:34.680Z,15.27
2019-05-02T15:17:12.134Z,15.00
2019-05-02T15:19:48.596Z,14.74
2019-05-02T15:22:27.500Z,14.69
2019-05-02T15:25:02.682Z,14.60
2019-05-02T15:27:42.002Z,14.70
2019-05-02T15:30:24.111Z,14.99
2019-05-02T15:33:09.237Z,15.68
2019-05-02T15:35:57.214Z,15.95
2019-05-02T15:38:37.299Z,16.09
2019-05-02T15:41:15.416Z,15.91
2019-05-02T15:43:54.008Z,15.75
2019-05-02T15:46:36.831Z,15.50
2019-05-02T15:49:13.273Z,15.41
2019-05-02T15:51:49.926Z,15.27
2019-05-02T15:54:35.713Z,15.04
2019-05-02T15:57:18.789Z,14.91
2019-05-02T15:59:54.811Z,14.89
2019-05-02T16:02:32.145Z,14.93
2019-05-02T16:05:09.290Z,14.87
2019-05-02T16:07:46.565Z,14.88
2019-05-02T16:10:21.722Z,14.83
2019-05-02T16:12:59.581Z,14.72
2019-05-02T16:15:35.101Z,14.69
2019-05-02T16:18:10.398Z,14.67
2019-05-02T16:21:04.169Z,14.68
2019-05-02T16:23:32.870Z,14.64
2019-05-02T16:26:05.924Z,14.62
2019-05-02T16:28:45.451Z,14.62
2019-05-02T16:31:22.109Z,14.55
2019-05-02T16:33:57.528Z,14.45
2019-05-02T16:36:37.396Z,14.37
2019-05-02T16:39:13.598Z,14.34
2019-05-02T16:41:50.438Z,14.24
2019-05-02T16:44:25.229Z,14.14
2019-05-02T16:47:02.186Z,14.07
2019-05-02T16:49:38.468Z,14.05
2019-05-02T16:52:16.382Z,14.04
2019-05-02T16:54:52.652Z,14.03
2019-05-02T16:57:56.788Z,14.06
2019-05-02T17:00:37.062Z,14.05
2019-05-02T17:03:17.282Z,14.07
2019-05-02T17:05:54.108Z,14.07
2019-05-02T17:08:32.849Z,14.12
2019-05-02T17:11:15.959Z,14.06
2019-05-02T17:13:52.757Z,14.05
2019-05-02T17:16:28.088Z,14.08
2019-05-02T17:19:04.481Z,14.10
2019-05-02T17:21:52.841Z,14.11
2019-05-02T17:24:24.639Z,14.07
2019-05-02T17:26:55.797Z,14.06
2019-05-02T17:29:31.763Z,14.07
2019-05-02T17:32:08.967Z,14.10
2019-05-02T17:35:19.598Z,14.17
2019-05-02T17:37:55.931Z,14.17
2019-05-02T17:40:31.214Z,14.14
2019-05-02T17:43:07.152Z,14.21
2019-05-02T17:45:42.351Z,14.14
2019-05-02T17:48:17.934Z,14.09
2019-05-02T17:51:02.133Z,14.00
2019-05-02T17:53:41.537Z,13.94
2019-05-02T17:56:20.570Z,13.89
2019-05-02T17:58:54.141Z,13.81
2019-05-02T18:01:35.081Z,13.75
2019-05-02T18:04:12.608Z,13.72
2019-05-02T18:07:00.758Z,13.70
2019-05-02T18:09:35.053Z,13.63
2019-05-02T18:12:14.444Z,13.58
2019-05-02T18:14:53.157Z,13.42
2019-05-02T18:17:27.557Z,13.42
2019-05-02T18:20:04.694Z,13.48
2019-05-02T18:22:39.952Z,13.47
2019-05-02T18:25:23.599Z,13.41
2019-05-02T18:28:02.423Z,13.35
2019-05-02T18:30:37.489Z,13.28
2019-05-02T18:33:13.252Z,13.26
2019-05-02T18:35:48.449Z,13.22
2019-05-02T18:38:24.241Z,13.20
2019-05-02T18:41:00.227Z,13.20
2019-05-02T18:43:43.595Z,13.19
2019-05-02T18:46:13.447Z,13.19
2019-05-02T18:48:49.257Z,13.19
2019-05-02T18:51:24.740Z,13.19
2019-05-02T18:54:04.565Z,13.20
2019-05-02T18:56:42.823Z,13.21
2019-05-02T18:59:19.791Z,13.22
2019-05-02T19:01:52.670Z,13.26
2019-05-02T19:04:35.265Z,13.26
2019-05-02T19:07:07.556Z,13.27
2019-05-02T19:09:51.111Z,13.29
2019-05-02T19:12:25.393Z,13.30
2019-05-02T19:15:03.153Z,13.34
2019-05-02T19:17:38.400Z,13.35
2019-05-02T19:20:24.542Z,13.34
2019-05-02T19:23:00.186Z,13.34
2019-05-02T19:25:35.531Z,13.32
2019-05-02T19:28:12.338Z,13.26
2019-05-02T19:30:48.006Z,13.31
2019-05-02T19:33:24.363Z,13.30
2019-05-02T19:36:00.045Z,13.30
2019-05-02T19:38:37.686Z,13.33
2019-05-02T19:41:16.747Z,13.34
2019-05-02T19:43:53.377Z,13.35
2019-05-02T19:46:34.761Z,13.34
2019-05-02T19:49:06.885Z,13.35
2019-05-02T19:51:43.434Z,13.39
2019-05-02T19:54:18.726Z,13.37
2019-05-02T19:56:54.290Z,13.36
2019-05-02T19:59:29.808Z,13.36
2019-05-02T20:02:06.354Z,13.38
2019-05-02T20:04:43.999Z,13.38
2019-05-02T20:07:19.434Z,13.40
2019-05-02T20:09:54.523Z,13.44
2019-05-02T20:12:29.951Z,13.44
2019-05-02T20:15:07.371Z,13.44
2019-05-02T20:17:43.861Z,13.43
2019-05-02T20:20:52.136Z,13.40
2019-05-02T20:23:31.451Z,13.34
2019-05-02T20:26:09.415Z,13.38
2019-05-02T20:28:42.384Z,13.36
2019-05-02T20:31:17.664Z,13.36
2019-05-02T20:33:53.167Z,13.34
2019-05-02T20:36:28.337Z,13.33
2019-05-02T20:39:07.006Z,13.26
2019-05-02T20:41:42.809Z,13.13
2019-05-02T20:44:17.918Z,13.00
2019-05-02T20:46:53.587Z,12.90
2019-05-02T20:49:29.838Z,12.77
2019-05-02T20:52:04.987Z,12.63
2019-05-02T20:54:40.113Z,12.44
2019-05-02T20:57:15.606Z,12.31
2019-05-02T20:59:52.520Z,12.27
2019-05-02T21:02:28.302Z,12.21
2019-05-02T21:05:04.103Z,12.15
2019-05-02T21:07:43.618Z,12.10
2019-05-02T21:10:23.448Z,12.06
2019-05-02T21:12:58.613Z,12.06
2019-05-02T21:15:34.857Z,12.06
2019-05-02T21:18:11.716Z,12.02
2019-05-02T21:20:47.509Z,11.95
2019-05-02T21:23:22.903Z,11.90
2019-05-02T21:25:58.377Z,11.88
2019-05-02T21:28:34.168Z,11.80
2019-05-02T21:31:09.608Z,11.63
2019-05-02T21:33:44.841Z,11.70
2019-05-02T21:36:19.896Z,11.66
2019-05-02T21:38:54.964Z,11.65
2019-05-02T21:41:30.448Z,11.65
2019-05-02T21:44:06.020Z,11.61
2019-05-02T21:46:42.328Z,11.62
2019-05-02T21:49:59.421Z,11.56
2019-05-02T21:55:52.127Z,11.48
2019-05-02T21:58:28.751Z,11.43
2019-05-02T22:01:10.392Z,11.48
2019-05-02T22:03:45.829Z,11.41
2019-05-02T22:06:22.635Z,11.33
2019-05-02T22:08:57.855Z,11.30
2019-05-02T22:11:33.990Z,11.28
2019-05-02T22:14:09.814Z,11.22
2019-05-02T22:16:45.189Z,11.21
2019-05-02T22:19:21.682Z,11.17
2019-05-02T22:22:04.919Z,11.09
2019-05-02T22:24:42.138Z,11.10
2019-05-02T22:27:18.685Z,11.05
2019-05-02T22:29:54.652Z,11.03
2019-05-02T22:32:31.992Z,11.03
2019-05-02T22:35:07.811Z,11.05
2019-05-02T22:37:44.541Z,10.99
2019-05-02T22:40:21.684Z,10.99
2019-05-02T22:42:56.686Z,10.98
2019-05-02T22:45:32.221Z,10.95
2019-05-02T22:48:07.446Z,10.93
2019-05-02T22:50:42.524Z,10.89
2019-05-02T22:53:21.774Z,10.90
2019-05-02T22:55:57.199Z,10.87
2019-05-02T22:58:32.668Z,10.85
2019-05-02T23:01:09.176Z,10.85
2019-05-02T23:03:44.671Z,10.82
2019-05-02T23:06:19.688Z,10.77
2019-05-02T23:08:55.229Z,10.75
2019-05-02T23:11:30.370Z,10.81
2019-05-02T23:14:06.658Z,10.76
2019-05-02T23:16:42.915Z,10.73
2019-05-02T23:19:18.569Z,10.71
2019-05-02T23:21:54.880Z,10.70
2019-05-02T23:24:49.303Z,10.65
2019-05-02T23:27:42.900Z,10.64
2019-05-02T23:30:22.400Z,10.58
2019-05-02T23:32:57.323Z,10.54
2019-05-02T23:35:34.309Z,10.59
2019-05-02T23:38:09.462Z,10.49
2019-05-02T23:40:44.532Z,10.47
2019-05-02T23:43:19.555Z,10.40
2019-05-02T23:45:54.688Z,10.38
2019-05-02T23:48:29.858Z,10.28
2019-05-02T23:51:05.220Z,10.25
2019-05-02T23:53:42.210Z,10.17
2019-05-02T23:56:17.387Z,10.16
2019-05-02T23:58:52.589Z,10.11
